BHS3252 MYNN-MYGF
Flight info
| Callsign | BHS3252 |
|---|---|
| Flight time | 0h 29m |
| Altitude | 12000 |
| Route | DCT PEACH BR65V ZFP DCT |
| Aircraft | DH8C/M-SDFGR/S |
Departure
| Time | 2026-04-12 02:06 |
|---|---|
| Airport | Lynden Pindling International Airport (MYNN) |
Arrival
| Time | 2026-04-12 02:35 |
|---|---|
| Airport | Grand Bahama International Airport (MYGF) |
| Time | Latitude | Longitude | Altitude | Speed | Heading |
|---|---|---|---|---|---|
| 2026-04-12 01:07 | 25.04741 | -77.46596 | 25 ft | 0 kts | 179° |
| 2026-04-12 02:02 | 25.04739 | -77.46596 | 25 ft | 1 kts | 187° |
| 2026-04-12 02:02 | 25.04750 | -77.46604 | 25 ft | 6 kts | 5° |
| 2026-04-12 02:02 | 25.04777 | -77.46658 | 25 ft | 12 kts | 246° |
| 2026-04-12 02:02 | 25.04712 | -77.46742 | 25 ft | 14 kts | 242° |
| 2026-04-12 02:03 | 25.04750 | -77.46826 | 25 ft | 12 kts | 316° |
| 2026-04-12 02:03 | 25.04808 | -77.46890 | 25 ft | 10 kts | 306° |
| 2026-04-12 02:03 | 25.04797 | -77.46963 | 26 ft | 9 kts | 257° |
| 2026-04-12 02:03 | 25.04794 | -77.46977 | 26 ft | 0 kts | 258° |
| 2026-04-12 02:04 | 25.04792 | -77.46989 | 25 ft | 4 kts | 258° |
| 2026-04-12 02:05 | 25.04777 | -77.47053 | 26 ft | 11 kts | 255° |
| 2026-04-12 02:05 | 25.04717 | -77.47053 | 26 ft | 14 kts | 133° |
| 2026-04-12 02:05 | 25.04539 | -77.46854 | 25 ft | 77 kts | 134° |
| 2026-04-12 02:05 | 25.03994 | -77.46259 | 111 ft | 133 kts | 131° |
| 2026-04-12 02:06 | 25.03264 | -77.45495 | 574 ft | 154 kts | 134° |
| 2026-04-12 02:06 | 25.02436 | -77.44649 | 1015 ft | 170 kts | 134° |
| 2026-04-12 02:06 | 25.01526 | -77.43714 | 1365 ft | 185 kts | 134° |
| 2026-04-12 02:06 | 25.00555 | -77.42712 | 1797 ft | 199 kts | 134° |
| 2026-04-12 02:07 | 24.99535 | -77.41656 | 2223 ft | 210 kts | 134° |
| 2026-04-12 02:07 | 24.98638 | -77.40366 | 2600 ft | 216 kts | 107° |
| 2026-04-12 02:07 | 24.98726 | -77.38737 | 2990 ft | 218 kts | 64° |
| 2026-04-12 02:07 | 24.99697 | -77.37439 | 3431 ft | 222 kts | 43° |
| 2026-04-12 02:08 | 25.00829 | -77.36266 | 3867 ft | 227 kts | 42° |
| 2026-04-12 02:08 | 25.01989 | -77.35084 | 4292 ft | 231 kts | 38° |
| 2026-04-12 02:08 | 25.03485 | -77.34528 | 4653 ft | 234 kts | 359° |
| 2026-04-12 02:08 | 25.05021 | -77.35060 | 5075 ft | 238 kts | 333° |
| 2026-04-12 02:09 | 25.06409 | -77.36068 | 5514 ft | 240 kts | 325° |
| 2026-04-12 02:09 | 25.07737 | -77.37215 | 5945 ft | 242 kts | 322° |
| 2026-04-12 02:09 | 25.09033 | -77.38401 | 6373 ft | 244 kts | 321° |
| 2026-04-12 02:09 | 25.10344 | -77.39604 | 6801 ft | 246 kts | 321° |
| 2026-04-12 02:10 | 25.11680 | -77.40826 | 7234 ft | 247 kts | 321° |
| 2026-04-12 02:10 | 25.13001 | -77.42036 | 7660 ft | 249 kts | 321° |
| 2026-04-12 02:10 | 25.14340 | -77.43261 | 8087 ft | 250 kts | 321° |
| 2026-04-12 02:10 | 25.15665 | -77.44476 | 8508 ft | 251 kts | 320° |
| 2026-04-12 02:11 | 25.17022 | -77.45718 | 8936 ft | 253 kts | 320° |
| 2026-04-12 02:11 | 25.18385 | -77.46970 | 9365 ft | 254 kts | 320° |
| 2026-04-12 02:11 | 25.19733 | -77.48204 | 9785 ft | 255 kts | 320° |
| 2026-04-12 02:11 | 25.21107 | -77.49464 | 10211 ft | 257 kts | 320° |
| 2026-04-12 02:12 | 25.22493 | -77.50735 | 10639 ft | 258 kts | 320° |
| 2026-04-12 02:12 | 25.23867 | -77.51996 | 11060 ft | 259 kts | 320° |
| 2026-04-12 02:12 | 25.25257 | -77.53271 | 11483 ft | 261 kts | 320° |
| 2026-04-12 02:12 | 25.26657 | -77.54558 | 11901 ft | 263 kts | 320° |
| 2026-04-12 02:13 | 25.28088 | -77.55872 | 12015 ft | 273 kts | 320° |
| 2026-04-12 02:13 | 25.29556 | -77.57220 | 12013 ft | 279 kts | 320° |
| 2026-04-12 02:13 | 25.31063 | -77.58604 | 12016 ft | 287 kts | 320° |
| 2026-04-12 02:13 | 25.32617 | -77.60032 | 12014 ft | 293 kts | 320° |
| 2026-04-12 02:14 | 25.34189 | -77.61476 | 12012 ft | 297 kts | 320° |
| 2026-04-12 02:14 | 25.35788 | -77.62947 | 12011 ft | 301 kts | 320° |
| 2026-04-12 02:14 | 25.37414 | -77.64443 | 12010 ft | 303 kts | 320° |
| 2026-04-12 02:14 | 25.39021 | -77.65923 | 12010 ft | 305 kts | 319° |
| 2026-04-12 02:15 | 25.40665 | -77.67436 | 12010 ft | 306 kts | 319° |
| 2026-04-12 02:15 | 25.42293 | -77.68935 | 12010 ft | 307 kts | 319° |
| 2026-04-12 02:15 | 25.43943 | -77.70456 | 12010 ft | 307 kts | 319° |
| 2026-04-12 02:15 | 25.45594 | -77.71977 | 12009 ft | 308 kts | 319° |
| 2026-04-12 02:16 | 25.47242 | -77.73496 | 12009 ft | 308 kts | 319° |
| 2026-04-12 02:16 | 25.48887 | -77.75011 | 12009 ft | 309 kts | 319° |
| 2026-04-12 02:16 | 25.50531 | -77.76527 | 12009 ft | 309 kts | 319° |
| 2026-04-12 02:16 | 25.52177 | -77.78046 | 12009 ft | 309 kts | 319° |
| 2026-04-12 02:17 | 25.53815 | -77.79558 | 12009 ft | 309 kts | 319° |
| 2026-04-12 02:17 | 25.55485 | -77.81101 | 12009 ft | 309 kts | 319° |
| 2026-04-12 02:17 | 25.57127 | -77.82618 | 12009 ft | 309 kts | 319° |
| 2026-04-12 02:17 | 25.58777 | -77.84144 | 12009 ft | 309 kts | 319° |
| 2026-04-12 02:18 | 25.60422 | -77.85666 | 12009 ft | 309 kts | 319° |
| 2026-04-12 02:18 | 25.62069 | -77.87189 | 12009 ft | 309 kts | 319° |
| 2026-04-12 02:18 | 25.63715 | -77.88714 | 12009 ft | 309 kts | 319° |
| 2026-04-12 02:18 | 25.65378 | -77.90253 | 12009 ft | 309 kts | 319° |
| 2026-04-12 02:19 | 25.67016 | -77.91770 | 12009 ft | 309 kts | 319° |
| 2026-04-12 02:19 | 25.68667 | -77.93300 | 12009 ft | 309 kts | 319° |
| 2026-04-12 02:19 | 25.70316 | -77.94829 | 12009 ft | 309 kts | 319° |
| 2026-04-12 02:19 | 25.71956 | -77.96349 | 12009 ft | 309 kts | 319° |
| 2026-04-12 02:20 | 25.73601 | -77.97877 | 12009 ft | 309 kts | 319° |
| 2026-04-12 02:20 | 25.75259 | -77.99415 | 12009 ft | 309 kts | 319° |
| 2026-04-12 02:20 | 25.76905 | -78.00943 | 12009 ft | 309 kts | 319° |
| 2026-04-12 02:20 | 25.78554 | -78.02475 | 12013 ft | 309 kts | 319° |
| 2026-04-12 02:21 | 25.80204 | -78.04007 | 12017 ft | 309 kts | 319° |
| 2026-04-12 02:21 | 25.81832 | -78.05520 | 12021 ft | 309 kts | 319° |
| 2026-04-12 02:21 | 25.83484 | -78.07056 | 12024 ft | 308 kts | 319° |
| 2026-04-12 02:21 | 25.85119 | -78.08577 | 12027 ft | 308 kts | 319° |
| 2026-04-12 02:22 | 25.86768 | -78.10111 | 12029 ft | 308 kts | 319° |
| 2026-04-12 02:22 | 25.88419 | -78.11649 | 12032 ft | 308 kts | 319° |
| 2026-04-12 02:22 | 25.90049 | -78.13165 | 11958 ft | 306 kts | 319° |
| 2026-04-12 02:22 | 25.91689 | -78.14693 | 11554 ft | 309 kts | 319° |
| 2026-04-12 02:23 | 25.93335 | -78.16230 | 11141 ft | 311 kts | 319° |
| 2026-04-12 02:23 | 25.94977 | -78.17761 | 10782 ft | 310 kts | 319° |
| 2026-04-12 02:23 | 25.96626 | -78.19299 | 10454 ft | 308 kts | 320° |
| 2026-04-12 02:23 | 25.98263 | -78.20827 | 10128 ft | 306 kts | 320° |
| 2026-04-12 02:24 | 25.99889 | -78.22343 | 9799 ft | 305 kts | 320° |
| 2026-04-12 02:24 | 26.01488 | -78.23837 | 9473 ft | 303 kts | 320° |
| 2026-04-12 02:24 | 26.03097 | -78.25340 | 9144 ft | 302 kts | 320° |
| 2026-04-12 02:24 | 26.04722 | -78.26858 | 8814 ft | 300 kts | 320° |
| 2026-04-12 02:25 | 26.06300 | -78.28333 | 8493 ft | 299 kts | 320° |
| 2026-04-12 02:25 | 26.07889 | -78.29819 | 8167 ft | 298 kts | 320° |
| 2026-04-12 02:25 | 26.09477 | -78.31304 | 7842 ft | 296 kts | 320° |
| 2026-04-12 02:25 | 26.11046 | -78.32772 | 7522 ft | 295 kts | 320° |
| 2026-04-12 02:26 | 26.12605 | -78.34243 | 7202 ft | 294 kts | 320° |
| 2026-04-12 02:26 | 26.14141 | -78.35729 | 6885 ft | 293 kts | 320° |
| 2026-04-12 02:26 | 26.15665 | -78.37211 | 6570 ft | 292 kts | 320° |
| 2026-04-12 02:26 | 26.17183 | -78.38692 | 6255 ft | 291 kts | 320° |
| 2026-04-12 02:27 | 26.18718 | -78.40192 | 5934 ft | 290 kts | 320° |
| 2026-04-12 02:27 | 26.20209 | -78.41647 | 5624 ft | 289 kts | 320° |
| 2026-04-12 02:27 | 26.21730 | -78.43131 | 5307 ft | 288 kts | 320° |
| 2026-04-12 02:27 | 26.23230 | -78.44595 | 4982 ft | 288 kts | 320° |
| 2026-04-12 02:28 | 26.24740 | -78.46069 | 4660 ft | 287 kts | 320° |
| 2026-04-12 02:28 | 26.26232 | -78.47527 | 4405 ft | 284 kts | 320° |
| 2026-04-12 02:28 | 26.27719 | -78.48974 | 4216 ft | 281 kts | 319° |
| 2026-04-12 02:28 | 26.29162 | -78.50385 | 4086 ft | 276 kts | 319° |
| 2026-04-12 02:29 | 26.30601 | -78.51798 | 3957 ft | 273 kts | 319° |
| 2026-04-12 02:29 | 26.32035 | -78.53200 | 3857 ft | 270 kts | 319° |
| 2026-04-12 02:29 | 26.33433 | -78.54568 | 3803 ft | 266 kts | 319° |
| 2026-04-12 02:29 | 26.34819 | -78.55924 | 3748 ft | 263 kts | 319° |
| 2026-04-12 02:30 | 26.36186 | -78.57263 | 3695 ft | 261 kts | 319° |
| 2026-04-12 02:30 | 26.37549 | -78.58598 | 3542 ft | 263 kts | 319° |
| 2026-04-12 02:30 | 26.38942 | -78.59963 | 3357 ft | 265 kts | 319° |
| 2026-04-12 02:30 | 26.40338 | -78.61331 | 3160 ft | 267 kts | 319° |
| 2026-04-12 02:31 | 26.41727 | -78.62692 | 2956 ft | 269 kts | 319° |
| 2026-04-12 02:31 | 26.43085 | -78.64024 | 2687 ft | 248 kts | 319° |
| 2026-04-12 02:31 | 26.44321 | -78.65237 | 2404 ft | 227 kts | 319° |
| 2026-04-12 02:31 | 26.45432 | -78.66325 | 2137 ft | 212 kts | 319° |
| 2026-04-12 02:32 | 26.46501 | -78.67376 | 1865 ft | 200 kts | 319° |
| 2026-04-12 02:32 | 26.47503 | -78.68362 | 1700 ft | 182 kts | 319° |
| 2026-04-12 02:32 | 26.48414 | -78.69257 | 1572 ft | 165 kts | 319° |
| 2026-04-12 02:32 | 26.49245 | -78.70073 | 1390 ft | 158 kts | 319° |
| 2026-04-12 02:33 | 26.50050 | -78.70864 | 1216 ft | 144 kts | 319° |
| 2026-04-12 02:33 | 26.50778 | -78.71580 | 1059 ft | 137 kts | 319° |
| 2026-04-12 02:33 | 26.51457 | -78.72244 | 999 ft | 124 kts | 319° |
| 2026-04-12 02:33 | 26.52099 | -78.72869 | 960 ft | 122 kts | 319° |
| 2026-04-12 02:34 | 26.52868 | -78.73232 | 894 ft | 125 kts | 357° |
| 2026-04-12 02:34 | 26.53680 | -78.72953 | 828 ft | 119 kts | 27° |
| 2026-04-12 02:34 | 26.54363 | -78.72409 | 610 ft | 117 kts | 45° |
| 2026-04-12 02:34 | 26.54814 | -78.71683 | 251 ft | 115 kts | 62° |
| 2026-04-12 02:35 | 26.55198 | -78.70899 | 41 ft | 113 kts | 62° |
| 2026-04-12 02:35 | 26.55570 | -78.70150 | 15 ft | 103 kts | 61° |
| 2026-04-12 02:35 | 26.55866 | -78.69556 | 12 ft | 63 kts | 60° |
| 2026-04-12 02:35 | 26.55932 | -78.69396 | 12 ft | 11 kts | 138° |
| 2026-04-12 02:36 | 26.55847 | -78.69419 | 12 ft | 13 kts | 197° |
| 2026-04-12 02:36 | 26.55759 | -78.69472 | 12 ft | 15 kts | 221° |
| 2026-04-12 02:36 | 26.55676 | -78.69554 | 12 ft | 16 kts | 221° |
| 2026-04-12 02:36 | 26.55585 | -78.69644 | 12 ft | 18 kts | 220° |
| 2026-04-12 02:37 | 26.55487 | -78.69738 | 12 ft | 19 kts | 220° |
| 2026-04-12 02:37 | 26.55383 | -78.69840 | 12 ft | 20 kts | 221° |
| 2026-04-12 02:37 | 26.55277 | -78.69944 | 12 ft | 20 kts | 221° |
| 2026-04-12 02:37 | 26.55166 | -78.70052 | 12 ft | 21 kts | 220° |
| 2026-04-12 02:38 | 26.55056 | -78.70156 | 12 ft | 18 kts | 220° |
| 2026-04-12 02:38 | 26.54968 | -78.70240 | 12 ft | 16 kts | 211° |
| 2026-04-12 02:38 | 26.54919 | -78.70166 | 12 ft | 16 kts | 91° |
| 2026-04-12 02:38 | 26.54917 | -78.70023 | 12 ft | 19 kts | 91° |
| 2026-04-12 02:39 | 26.54913 | -78.69860 | 12 ft | 21 kts | 91° |
| 2026-04-12 02:39 | 26.54908 | -78.69700 | 12 ft | 16 kts | 92° |
| 2026-04-12 02:39 | 26.54863 | -78.69653 | 12 ft | 5 kts | 140° |
| 2026-04-12 02:39 | 26.54858 | -78.69630 | 12 ft | 0 kts | 91° |